sensor_id;sensor_type;location;lat;lon;timestamp;P1;durP1;ratioP1;P2;durP2;ratioP2
17283;SDS011;8760;52.248;20.952;2023-09-08T00:00:03;6.72;;;5.55;;
17283;SDS011;8760;52.248;20.952;2023-09-08T00:02:34;8.70;;;5.60;;
17283;SDS011;8760;52.248;20.952;2023-09-08T00:05:01;8.88;;;5.45;;
17283;SDS011;8760;52.248;20.952;2023-09-08T00:07:28;6.63;;;5.80;;
17283;SDS011;8760;52.248;20.952;2023-09-08T00:09:54;8.40;;;5.55;;
17283;SDS011;8760;52.248;20.952;2023-09-08T00:12:21;8.40;;;5.72;;
17283;SDS011;8760;52.248;20.952;2023-09-08T00:14:50;7.55;;;5.93;;
17283;SDS011;8760;52.248;20.952;2023-09-08T00:17:16;6.82;;;5.35;;
17283;SDS011;8760;52.248;20.952;2023-09-08T00:19:43;8.63;;;5.43;;
17283;SDS011;8760;52.248;20.952;2023-09-08T00:22:10;8.50;;;5.72;;
17283;SDS011;8760;52.248;20.952;2023-09-08T00:24:37;6.70;;;5.72;;
17283;SDS011;8760;52.248;20.952;2023-09-08T00:27:04;8.95;;;5.80;;
17283;SDS011;8760;52.248;20.952;2023-09-08T00:29:31;8.75;;;6.18;;
17283;SDS011;8760;52.248;20.952;2023-09-08T00:31:59;9.95;;;5.97;;
17283;SDS011;8760;52.248;20.952;2023-09-08T00:34:26;10.88;;;5.75;;
17283;SDS011;8760;52.248;20.952;2023-09-08T00:36:53;8.55;;;5.95;;
17283;SDS011;8760;52.248;20.952;2023-09-08T00:39:20;6.57;;;5.95;;
17283;SDS011;8760;52.248;20.952;2023-09-08T00:41:47;9.07;;;5.60;;
17283;SDS011;8760;52.248;20.952;2023-09-08T00:44:14;9.38;;;5.88;;
17283;SDS011;8760;52.248;20.952;2023-09-08T00:46:41;7.85;;;5.95;;
17283;SDS011;8760;52.248;20.952;2023-09-08T00:49:09;8.55;;;6.20;;
17283;SDS011;8760;52.248;20.952;2023-09-08T00:51:36;9.68;;;6.43;;
17283;SDS011;8760;52.248;20.952;2023-09-08T00:54:04;9.45;;;6.55;;
17283;SDS011;8760;52.248;20.952;2023-09-08T00:56:32;9.30;;;5.75;;
17283;SDS011;8760;52.248;20.952;2023-09-08T00:59:00;10.07;;;6.70;;
17283;SDS011;8760;52.248;20.952;2023-09-08T01:01:27;6.45;;;5.85;;
17283;SDS011;8760;52.248;20.952;2023-09-08T01:03:54;7.60;;;6.07;;
17283;SDS011;8760;52.248;20.952;2023-09-08T01:06:23;8.85;;;5.78;;
17283;SDS011;8760;52.248;20.952;2023-09-08T01:08:50;9.68;;;6.03;;
17283;SDS011;8760;52.248;20.952;2023-09-08T01:11:18;6.95;;;6.15;;
17283;SDS011;8760;52.248;20.952;2023-09-08T01:13:46;10.50;;;5.93;;
17283;SDS011;8760;52.248;20.952;2023-09-08T01:16:12;8.40;;;6.20;;
17283;SDS011;8760;52.248;20.952;2023-09-08T01:18:39;9.02;;;6.13;;
17283;SDS011;8760;52.248;20.952;2023-09-08T01:24:19;10.57;;;6.22;;
17283;SDS011;8760;52.248;20.952;2023-09-08T01:26:59;7.32;;;6.55;;
17283;SDS011;8760;52.248;20.952;2023-09-08T01:29:27;6.88;;;6.18;;
17283;SDS011;8760;52.248;20.952;2023-09-08T01:31:55;9.25;;;6.72;;
17283;SDS011;8760;52.248;20.952;2023-09-08T01:34:22;8.57;;;6.80;;
17283;SDS011;8760;52.248;20.952;2023-09-08T01:36:50;8.32;;;6.28;;
17283;SDS011;8760;52.248;20.952;2023-09-08T01:39:17;7.40;;;6.35;;
17283;SDS011;8760;52.248;20.952;2023-09-08T01:41:44;9.40;;;6.43;;
17283;SDS011;8760;52.248;20.952;2023-09-08T01:44:12;10.30;;;6.50;;
17283;SDS011;8760;52.248;20.952;2023-09-08T01:46:39;11.50;;;6.30;;
17283;SDS011;8760;52.248;20.952;2023-09-08T01:49:06;8.98;;;6.30;;
17283;SDS011;8760;52.248;20.952;2023-09-08T01:51:33;6.63;;;6.00;;
17283;SDS011;8760;52.248;20.952;2023-09-08T01:54:00;7.43;;;5.97;;
17283;SDS011;8760;52.248;20.952;2023-09-08T01:56:27;11.73;;;6.57;;
17283;SDS011;8760;52.248;20.952;2023-09-08T01:58:53;9.73;;;6.38;;
17283;SDS011;8760;52.248;20.952;2023-09-08T02:01:22;9.75;;;6.07;;
17283;SDS011;8760;52.248;20.952;2023-09-08T02:03:48;8.77;;;6.85;;
17283;SDS011;8760;52.248;20.952;2023-09-08T02:06:15;8.70;;;7.15;;
17283;SDS011;8760;52.248;20.952;2023-09-08T02:08:42;7.97;;;6.45;;
17283;SDS011;8760;52.248;20.952;2023-09-08T02:11:09;7.32;;;6.53;;
17283;SDS011;8760;52.248;20.952;2023-09-08T02:13:36;9.00;;;6.72;;
17283;SDS011;8760;52.248;20.952;2023-09-08T02:16:03;11.93;;;7.05;;
17283;SDS011;8760;52.248;20.952;2023-09-08T02:18:31;10.00;;;6.60;;
17283;SDS011;8760;52.248;20.952;2023-09-08T02:20:58;8.48;;;6.53;;
17283;SDS011;8760;52.248;20.952;2023-09-08T02:23:25;11.68;;;6.88;;
17283;SDS011;8760;52.248;20.952;2023-09-08T02:25:52;11.05;;;6.60;;
17283;SDS011;8760;52.248;20.952;2023-09-08T02:28:18;11.05;;;7.22;;
17283;SDS011;8760;52.248;20.952;2023-09-08T02:30:45;10.10;;;7.30;;
17283;SDS011;8760;52.248;20.952;2023-09-08T02:33:12;8.38;;;6.93;;
17283;SDS011;8760;52.248;20.952;2023-09-08T02:35:40;13.10;;;7.35;;
17283;SDS011;8760;52.248;20.952;2023-09-08T02:38:07;9.60;;;7.25;;
17283;SDS011;8760;52.248;20.952;2023-09-08T02:40:34;9.40;;;7.35;;
17283;SDS011;8760;52.248;20.952;2023-09-08T02:43:01;9.25;;;7.07;;
17283;SDS011;8760;52.248;20.952;2023-09-08T02:45:28;8.10;;;6.95;;
17283;SDS011;8760;52.248;20.952;2023-09-08T02:47:55;11.52;;;7.43;;
17283;SDS011;8760;52.248;20.952;2023-09-08T02:50:22;11.13;;;7.22;;
17283;SDS011;8760;52.248;20.952;2023-09-08T02:52:51;8.70;;;6.80;;
17283;SDS011;8760;52.248;20.952;2023-09-08T02:55:18;11.60;;;8.10;;
17283;SDS011;8760;52.248;20.952;2023-09-08T02:57:45;12.20;;;8.32;;
17283;SDS011;8760;52.248;20.952;2023-09-08T03:00:12;10.88;;;7.35;;
17283;SDS011;8760;52.248;20.952;2023-09-08T03:02:40;8.63;;;7.10;;
17283;SDS011;8760;52.248;20.952;2023-09-08T03:05:07;9.00;;;6.95;;
17283;SDS011;8760;52.248;20.952;2023-09-08T03:07:34;10.32;;;8.13;;
17283;SDS011;8760;52.248;20.952;2023-09-08T03:10:04;10.93;;;7.63;;
17283;SDS011;8760;52.248;20.952;2023-09-08T03:12:32;9.57;;;8.05;;
17283;SDS011;8760;52.248;20.952;2023-09-08T03:15:00;9.35;;;8.32;;
17283;SDS011;8760;52.248;20.952;2023-09-08T03:17:27;11.18;;;8.23;;
17283;SDS011;8760;52.248;20.952;2023-09-08T03:19:54;10.63;;;8.27;;
17283;SDS011;8760;52.248;20.952;2023-09-08T03:22:21;13.90;;;8.07;;
17283;SDS011;8760;52.248;20.952;2023-09-08T03:24:49;9.88;;;7.78;;
17283;SDS011;8760;52.248;20.952;2023-09-08T03:27:18;10.25;;;8.43;;
17283;SDS011;8760;52.248;20.952;2023-09-08T03:29:45;11.90;;;8.18;;
17283;SDS011;8760;52.248;20.952;2023-09-08T03:32:12;13.23;;;8.95;;
17283;SDS011;8760;52.248;20.952;2023-09-08T03:34:39;10.90;;;7.85;;
17283;SDS011;8760;52.248;20.952;2023-09-08T03:37:06;10.73;;;8.38;;
17283;SDS011;8760;52.248;20.952;2023-09-08T03:39:33;11.45;;;7.75;;
17283;SDS011;8760;52.248;20.952;2023-09-08T03:42:00;11.48;;;8.23;;
17283;SDS011;8760;52.248;20.952;2023-09-08T03:44:29;10.10;;;8.02;;
17283;SDS011;8760;52.248;20.952;2023-09-08T03:46:56;13.25;;;8.25;;
17283;SDS011;8760;52.248;20.952;2023-09-08T03:49:22;10.02;;;8.10;;
17283;SDS011;8760;52.248;20.952;2023-09-08T03:51:49;26.45;;;17.67;;
17283;SDS011;8760;52.248;20.952;2023-09-08T03:54:16;12.13;;;8.15;;
17283;SDS011;8760;52.248;20.952;2023-09-08T03:56:43;13.73;;;8.73;;
17283;SDS011;8760;52.248;20.952;2023-09-08T03:59:10;12.18;;;8.38;;
17283;SDS011;8760;52.248;20.952;2023-09-08T04:01:38;21.58;;;8.60;;
17283;SDS011;8760;52.248;20.952;2023-09-08T04:04:05;11.30;;;7.88;;
17283;SDS011;8760;52.248;20.952;2023-09-08T04:06:32;15.30;;;8.23;;
17283;SDS011;8760;52.248;20.952;2023-09-08T04:08:59;11.70;;;8.32;;
17283;SDS011;8760;52.248;20.952;2023-09-08T04:11:25;9.77;;;8.32;;
17283;SDS011;8760;52.248;20.952;2023-09-08T04:13:52;9.23;;;8.27;;
17283;SDS011;8760;52.248;20.952;2023-09-08T04:16:19;9.23;;;8.20;;
17283;SDS011;8760;52.248;20.952;2023-09-08T04:18:47;12.38;;;7.78;;
17283;SDS011;8760;52.248;20.952;2023-09-08T04:21:14;14.82;;;8.40;;
17283;SDS011;8760;52.248;20.952;2023-09-08T04:23:41;14.38;;;8.23;;
17283;SDS011;8760;52.248;20.952;2023-09-08T04:26:08;15.10;;;8.70;;
17283;SDS011;8760;52.248;20.952;2023-09-08T04:28:35;10.95;;;8.27;;
17283;SDS011;8760;52.248;20.952;2023-09-08T04:31:02;9.52;;;8.52;;
17283;SDS011;8760;52.248;20.952;2023-09-08T04:33:29;12.88;;;8.55;;
17283;SDS011;8760;52.248;20.952;2023-09-08T04:35:58;8.77;;;7.68;;
17283;SDS011;8760;52.248;20.952;2023-09-08T04:38:24;12.02;;;8.55;;
17283;SDS011;8760;52.248;20.952;2023-09-08T04:40:51;15.30;;;8.98;;
17283;SDS011;8760;52.248;20.952;2023-09-08T04:43:18;7.97;;;7.18;;
17283;SDS011;8760;52.248;20.952;2023-09-08T04:45:45;11.07;;;8.68;;
17283;SDS011;8760;52.248;20.952;2023-09-08T04:48:12;10.98;;;7.90;;
17283;SDS011;8760;52.248;20.952;2023-09-08T04:50:39;9.25;;;7.95;;
17283;SDS011;8760;52.248;20.952;2023-09-08T04:53:07;11.05;;;7.97;;
17283;SDS011;8760;52.248;20.952;2023-09-08T04:55:34;9.32;;;8.02;;
17283;SDS011;8760;52.248;20.952;2023-09-08T04:58:01;12.52;;;8.90;;
17283;SDS011;8760;52.248;20.952;2023-09-08T05:00:27;10.05;;;8.55;;
17283;SDS011;8760;52.248;20.952;2023-09-08T05:02:54;12.30;;;10.05;;
17283;SDS011;8760;52.248;20.952;2023-09-08T05:05:21;11.88;;;7.75;;
17283;SDS011;8760;52.248;20.952;2023-09-08T05:07:48;18.27;;;8.73;;
17283;SDS011;8760;52.248;20.952;2023-09-08T05:10:17;9.77;;;8.35;;
17283;SDS011;8760;52.248;20.952;2023-09-08T05:12:44;9.75;;;8.50;;
17283;SDS011;8760;52.248;20.952;2023-09-08T05:15:11;10.73;;;8.80;;
17283;SDS011;8760;52.248;20.952;2023-09-08T05:17:40;13.30;;;9.73;;
17283;SDS011;8760;52.248;20.952;2023-09-08T05:20:07;10.52;;;8.68;;
17283;SDS011;8760;52.248;20.952;2023-09-08T05:22:35;11.20;;;8.85;;
17283;SDS011;8760;52.248;20.952;2023-09-08T05:25:02;14.60;;;9.55;;
17283;SDS011;8760;52.248;20.952;2023-09-08T05:27:30;12.55;;;8.00;;
17283;SDS011;8760;52.248;20.952;2023-09-08T05:29:57;13.05;;;8.88;;
17283;SDS011;8760;52.248;20.952;2023-09-08T05:32:24;13.10;;;8.60;;
17283;SDS011;8760;52.248;20.952;2023-09-08T05:34:51;10.88;;;9.10;;
17283;SDS011;8760;52.248;20.952;2023-09-08T05:37:18;12.23;;;8.90;;
17283;SDS011;8760;52.248;20.952;2023-09-08T05:39:45;13.30;;;8.55;;
17283;SDS011;8760;52.248;20.952;2023-09-08T05:42:12;11.77;;;8.60;;
17283;SDS011;8760;52.248;20.952;2023-09-08T05:44:40;12.20;;;8.73;;
17283;SDS011;8760;52.248;20.952;2023-09-08T05:47:07;13.77;;;8.15;;
17283;SDS011;8760;52.248;20.952;2023-09-08T05:49:34;12.45;;;9.07;;
17283;SDS011;8760;52.248;20.952;2023-09-08T05:52:00;13.35;;;8.23;;
17283;SDS011;8760;52.248;20.952;2023-09-08T05:54:27;11.32;;;7.72;;
17283;SDS011;8760;52.248;20.952;2023-09-08T05:56:55;11.55;;;8.13;;
17283;SDS011;8760;52.248;20.952;2023-09-08T05:59:22;16.20;;;8.65;;
17283;SDS011;8760;52.248;20.952;2023-09-08T06:01:50;14.13;;;8.38;;
17283;SDS011;8760;52.248;20.952;2023-09-08T06:04:17;11.77;;;8.00;;
17283;SDS011;8760;52.248;20.952;2023-09-08T06:06:44;11.57;;;8.52;;
17283;SDS011;8760;52.248;20.952;2023-09-08T06:09:11;12.48;;;7.43;;
17283;SDS011;8760;52.248;20.952;2023-09-08T06:11:39;13.48;;;8.40;;
17283;SDS011;8760;52.248;20.952;2023-09-08T06:14:06;15.70;;;8.88;;
17283;SDS011;8760;52.248;20.952;2023-09-08T06:16:33;13.68;;;8.73;;
17283;SDS011;8760;52.248;20.952;2023-09-08T06:19:02;12.40;;;8.02;;
17283;SDS011;8760;52.248;20.952;2023-09-08T06:21:29;11.23;;;8.25;;
17283;SDS011;8760;52.248;20.952;2023-09-08T06:23:56;12.05;;;8.70;;
17283;SDS011;8760;52.248;20.952;2023-09-08T06:26:23;12.40;;;8.15;;
17283;SDS011;8760;52.248;20.952;2023-09-08T06:28:50;14.70;;;8.82;;
17283;SDS011;8760;52.248;20.952;2023-09-08T06:31:17;12.05;;;7.88;;
17283;SDS011;8760;52.248;20.952;2023-09-08T06:33:43;10.27;;;8.13;;
17283;SDS011;8760;52.248;20.952;2023-09-08T06:36:12;13.25;;;8.45;;
17283;SDS011;8760;52.248;20.952;2023-09-08T06:38:39;14.60;;;8.38;;
17283;SDS011;8760;52.248;20.952;2023-09-08T06:41:09;14.43;;;8.75;;
17283;SDS011;8760;52.248;20.952;2023-09-08T06:43:36;13.25;;;8.32;;
17283;SDS011;8760;52.248;20.952;2023-09-08T06:46:03;12.82;;;8.73;;
17283;SDS011;8760;52.248;20.952;2023-09-08T06:48:30;17.08;;;7.90;;
17283;SDS011;8760;52.248;20.952;2023-09-08T06:50:57;18.38;;;7.90;;
17283;SDS011;8760;52.248;20.952;2023-09-08T06:53:25;15.95;;;8.43;;
17283;SDS011;8760;52.248;20.952;2023-09-08T06:55:52;13.50;;;8.25;;
17283;SDS011;8760;52.248;20.952;2023-09-08T06:58:19;13.63;;;7.90;;
17283;SDS011;8760;52.248;20.952;2023-09-08T07:00:46;13.38;;;7.85;;
17283;SDS011;8760;52.248;20.952;2023-09-08T07:03:14;14.65;;;8.27;;
17283;SDS011;8760;52.248;20.952;2023-09-08T07:05:41;17.13;;;8.40;;
17283;SDS011;8760;52.248;20.952;2023-09-08T07:08:08;14.25;;;8.07;;
17283;SDS011;8760;52.248;20.952;2023-09-08T07:10:36;13.45;;;7.78;;
17283;SDS011;8760;52.248;20.952;2023-09-08T07:13:04;12.38;;;7.55;;
17283;SDS011;8760;52.248;20.952;2023-09-08T07:15:30;11.68;;;7.65;;
17283;SDS011;8760;52.248;20.952;2023-09-08T07:17:57;15.07;;;7.85;;
17283;SDS011;8760;52.248;20.952;2023-09-08T07:20:24;13.02;;;7.22;;
17283;SDS011;8760;52.248;20.952;2023-09-08T07:22:51;14.85;;;7.85;;
17283;SDS011;8760;52.248;20.952;2023-09-08T07:25:18;16.95;;;8.00;;
17283;SDS011;8760;52.248;20.952;2023-09-08T07:27:47;13.07;;;7.47;;
17283;SDS011;8760;52.248;20.952;2023-09-08T07:30:17;14.70;;;7.43;;
17283;SDS011;8760;52.248;20.952;2023-09-08T07:32:44;16.20;;;8.18;;
17283;SDS011;8760;52.248;20.952;2023-09-08T07:35:11;16.25;;;7.93;;
17283;SDS011;8760;52.248;20.952;2023-09-08T07:37:41;17.48;;;7.82;;
17283;SDS011;8760;52.248;20.952;2023-09-08T07:40:09;14.82;;;8.32;;
17283;SDS011;8760;52.248;20.952;2023-09-08T07:42:36;16.02;;;8.20;;
17283;SDS011;8760;52.248;20.952;2023-09-08T07:45:05;15.52;;;8.05;;
17283;SDS011;8760;52.248;20.952;2023-09-08T07:47:34;22.05;;;8.32;;
17283;SDS011;8760;52.248;20.952;2023-09-08T07:50:19;17.67;;;8.32;;
17283;SDS011;8760;52.248;20.952;2023-09-08T07:52:47;14.70;;;7.88;;
17283;SDS011;8760;52.248;20.952;2023-09-08T07:55:14;22.08;;;7.70;;
17283;SDS011;8760;52.248;20.952;2023-09-08T07:57:41;9.10;;;7.35;;
17283;SDS011;8760;52.248;20.952;2023-09-08T08:00:10;14.82;;;7.13;;
17283;SDS011;8760;52.248;20.952;2023-09-08T08:02:39;10.40;;;7.63;;
17283;SDS011;8760;52.248;20.952;2023-09-08T08:05:08;13.55;;;7.40;;
17283;SDS011;8760;52.248;20.952;2023-09-08T08:07:35;17.85;;;7.35;;
17283;SDS011;8760;52.248;20.952;2023-09-08T08:10:02;18.10;;;7.70;;
17283;SDS011;8760;52.248;20.952;2023-09-08T08:12:30;7.97;;;6.85;;
17283;SDS011;8760;52.248;20.952;2023-09-08T08:14:57;11.52;;;7.03;;
17283;SDS011;8760;52.248;20.952;2023-09-08T08:17:25;9.40;;;7.10;;
17283;SDS011;8760;52.248;20.952;2023-09-08T08:19:53;12.68;;;7.25;;
17283;SDS011;8760;52.248;20.952;2023-09-08T08:22:20;11.07;;;7.80;;
17283;SDS011;8760;52.248;20.952;2023-09-08T08:24:46;15.48;;;7.90;;
17283;SDS011;8760;52.248;20.952;2023-09-08T08:27:13;17.90;;;7.88;;
17283;SDS011;8760;52.248;20.952;2023-09-08T08:29:40;8.90;;;6.88;;
17283;SDS011;8760;52.248;20.952;2023-09-08T08:32:07;18.33;;;7.65;;
17283;SDS011;8760;52.248;20.952;2023-09-08T08:34:35;15.02;;;7.60;;
17283;SDS011;8760;52.248;20.952;2023-09-08T08:37:02;14.52;;;7.28;;
17283;SDS011;8760;52.248;20.952;2023-09-08T08:39:29;16.67;;;7.90;;
17283;SDS011;8760;52.248;20.952;2023-09-08T08:41:56;12.30;;;7.72;;
17283;SDS011;8760;52.248;20.952;2023-09-08T08:44:23;15.48;;;6.68;;
17283;SDS011;8760;52.248;20.952;2023-09-08T08:46:50;16.75;;;6.95;;
17283;SDS011;8760;52.248;20.952;2023-09-08T08:49:19;14.93;;;6.72;;
17283;SDS011;8760;52.248;20.952;2023-09-08T08:51:50;14.23;;;7.10;;
17283;SDS011;8760;52.248;20.952;2023-09-08T08:54:18;13.07;;;6.40;;
17283;SDS011;8760;52.248;20.952;2023-09-08T08:56:46;9.90;;;6.25;;
17283;SDS011;8760;52.248;20.952;2023-09-08T08:59:14;12.25;;;6.00;;
17283;SDS011;8760;52.248;20.952;2023-09-08T09:01:41;11.43;;;6.53;;
17283;SDS011;8760;52.248;20.952;2023-09-08T09:04:08;14.40;;;7.13;;
17283;SDS011;8760;52.248;20.952;2023-09-08T09:06:36;10.23;;;6.65;;
17283;SDS011;8760;52.248;20.952;2023-09-08T09:09:04;9.00;;;6.22;;
17283;SDS011;8760;52.248;20.952;2023-09-08T09:11:33;8.35;;;6.07;;
17283;SDS011;8760;52.248;20.952;2023-09-08T09:14:00;10.70;;;5.65;;
17283;SDS011;8760;52.248;20.952;2023-09-08T09:16:27;10.13;;;6.63;;
17283;SDS011;8760;52.248;20.952;2023-09-08T09:18:54;11.98;;;5.90;;
17283;SDS011;8760;52.248;20.952;2023-09-08T09:21:22;11.80;;;6.38;;
17283;SDS011;8760;52.248;20.952;2023-09-08T09:23:49;10.52;;;6.03;;
17283;SDS011;8760;52.248;20.952;2023-09-08T09:26:24;14.70;;;7.13;;
17283;SDS011;8760;52.248;20.952;2023-09-08T09:28:52;9.07;;;6.25;;
17283;SDS011;8760;52.248;20.952;2023-09-08T09:31:22;7.28;;;6.22;;
17283;SDS011;8760;52.248;20.952;2023-09-08T09:34:00;10.63;;;7.22;;
17283;SDS011;8760;52.248;20.952;2023-09-08T09:36:30;9.15;;;5.95;;
17283;SDS011;8760;52.248;20.952;2023-09-08T09:38:58;11.30;;;6.38;;
17283;SDS011;8760;52.248;20.952;2023-09-08T09:41:28;11.10;;;6.25;;
17283;SDS011;8760;52.248;20.952;2023-09-08T09:43:56;10.10;;;7.07;;
17283;SDS011;8760;52.248;20.952;2023-09-08T09:46:23;13.43;;;6.68;;
17283;SDS011;8760;52.248;20.952;2023-09-08T09:48:50;10.25;;;6.20;;
17283;SDS011;8760;52.248;20.952;2023-09-08T09:51:19;7.68;;;6.03;;
17283;SDS011;8760;52.248;20.952;2023-09-08T09:53:46;12.40;;;6.90;;
17283;SDS011;8760;52.248;20.952;2023-09-08T09:56:16;9.00;;;6.95;;
17283;SDS011;8760;52.248;20.952;2023-09-08T09:58:44;11.07;;;6.60;;
17283;SDS011;8760;52.248;20.952;2023-09-08T10:01:13;17.27;;;7.03;;
17283;SDS011;8760;52.248;20.952;2023-09-08T10:03:40;6.45;;;4.72;;
17283;SDS011;8760;52.248;20.952;2023-09-08T10:06:07;8.23;;;5.32;;
17283;SDS011;8760;52.248;20.952;2023-09-08T10:08:35;9.23;;;5.55;;
17283;SDS011;8760;52.248;20.952;2023-09-08T10:11:03;18.50;;;6.00;;
17283;SDS011;8760;52.248;20.952;2023-09-08T10:13:33;25.67;;;7.18;;
17283;SDS011;8760;52.248;20.952;2023-09-08T10:16:07;10.52;;;5.55;;
17283;SDS011;8760;52.248;20.952;2023-09-08T10:18:38;10.00;;;5.75;;
17283;SDS011;8760;52.248;20.952;2023-09-08T10:21:08;18.00;;;6.30;;
17283;SDS011;8760;52.248;20.952;2023-09-08T10:23:36;10.73;;;5.78;;
17283;SDS011;8760;52.248;20.952;2023-09-08T10:26:09;8.90;;;5.75;;
17283;SDS011;8760;52.248;20.952;2023-09-08T10:28:37;7.22;;;5.05;;
17283;SDS011;8760;52.248;20.952;2023-09-08T10:31:04;6.15;;;5.30;;
17283;SDS011;8760;52.248;20.952;2023-09-08T10:33:33;6.30;;;4.78;;
17283;SDS011;8760;52.248;20.952;2023-09-08T10:36:02;6.18;;;4.65;;
17283;SDS011;8760;52.248;20.952;2023-09-08T10:38:31;9.18;;;4.90;;
17283;SDS011;8760;52.248;20.952;2023-09-08T10:43:58;4.85;;;3.97;;
17283;SDS011;8760;52.248;20.952;2023-09-08T10:46:30;8.80;;;4.63;;
17283;SDS011;8760;52.248;20.952;2023-09-08T10:49:03;8.18;;;4.68;;
17283;SDS011;8760;52.248;20.952;2023-09-08T10:51:32;5.10;;;4.40;;
17283;SDS011;8760;52.248;20.952;2023-09-08T10:53:59;6.00;;;5.40;;
17283;SDS011;8760;52.248;20.952;2023-09-08T10:56:27;7.07;;;5.78;;
17283;SDS011;8760;52.248;20.952;2023-09-08T10:59:12;10.05;;;5.55;;
17283;SDS011;8760;52.248;20.952;2023-09-08T11:01:39;6.78;;;5.32;;
17283;SDS011;8760;52.248;20.952;2023-09-08T11:04:09;8.73;;;6.03;;
17283;SDS011;8760;52.248;20.952;2023-09-08T11:06:38;8.15;;;6.03;;
17283;SDS011;8760;52.248;20.952;2023-09-08T11:09:06;9.38;;;5.78;;
17283;SDS011;8760;52.248;20.952;2023-09-08T11:11:33;10.75;;;6.82;;
17283;SDS011;8760;52.248;20.952;2023-09-08T11:14:01;7.60;;;6.15;;
17283;SDS011;8760;52.248;20.952;2023-09-08T11:16:28;6.75;;;5.70;;
17283;SDS011;8760;52.248;20.952;2023-09-08T11:18:58;6.93;;;5.53;;
17283;SDS011;8760;52.248;20.952;2023-09-08T11:21:27;8.27;;;5.95;;
17283;SDS011;8760;52.248;20.952;2023-09-08T11:23:59;8.82;;;6.28;;
17283;SDS011;8760;52.248;20.952;2023-09-08T11:26:28;10.23;;;6.30;;
17283;SDS011;8760;52.248;20.952;2023-09-08T11:28:55;6.68;;;6.05;;
17283;SDS011;8760;52.248;20.952;2023-09-08T11:31:23;8.88;;;5.82;;
17283;SDS011;8760;52.248;20.952;2023-09-08T11:33:54;9.02;;;6.50;;
17283;SDS011;8760;52.248;20.952;2023-09-08T11:36:21;6.05;;;5.25;;
17283;SDS011;8760;52.248;20.952;2023-09-08T11:38:49;7.70;;;5.90;;
17283;SDS011;8760;52.248;20.952;2023-09-08T11:41:18;6.47;;;5.03;;
17283;SDS011;8760;52.248;20.952;2023-09-08T11:43:49;8.68;;;5.57;;
17283;SDS011;8760;52.248;20.952;2023-09-08T11:46:16;9.18;;;5.93;;
17283;SDS011;8760;52.248;20.952;2023-09-08T11:48:43;7.07;;;5.85;;
17283;SDS011;8760;52.248;20.952;2023-09-08T11:51:11;6.55;;;5.85;;
17283;SDS011;8760;52.248;20.952;2023-09-08T11:53:37;6.97;;;5.80;;
17283;SDS011;8760;52.248;20.952;2023-09-08T11:56:06;7.30;;;6.32;;
17283;SDS011;8760;52.248;20.952;2023-09-08T11:58:33;8.02;;;5.70;;
17283;SDS011;8760;52.248;20.952;2023-09-08T12:01:00;9.35;;;5.85;;
17283;SDS011;8760;52.248;20.952;2023-09-08T12:03:29;6.82;;;6.13;;
17283;SDS011;8760;52.248;20.952;2023-09-08T12:05:56;9.07;;;5.50;;
17283;SDS011;8760;52.248;20.952;2023-09-08T12:08:24;7.15;;;5.75;;
17283;SDS011;8760;52.248;20.952;2023-09-08T12:10:53;7.80;;;5.30;;
17283;SDS011;8760;52.248;20.952;2023-09-08T12:13:22;8.77;;;5.38;;
17283;SDS011;8760;52.248;20.952;2023-09-08T12:15:49;7.43;;;5.38;;
17283;SDS011;8760;52.248;20.952;2023-09-08T12:18:16;8.55;;;5.60;;
17283;SDS011;8760;52.248;20.952;2023-09-08T12:20:43;7.15;;;5.55;;
17283;SDS011;8760;52.248;20.952;2023-09-08T12:23:17;8.55;;;5.40;;
17283;SDS011;8760;52.248;20.952;2023-09-08T12:25:45;7.25;;;5.72;;
17283;SDS011;8760;52.248;20.952;2023-09-08T12:28:12;5.80;;;5.30;;
17283;SDS011;8760;52.248;20.952;2023-09-08T12:30:41;8.63;;;5.90;;
17283;SDS011;8760;52.248;20.952;2023-09-08T12:33:08;7.60;;;5.55;;
17283;SDS011;8760;52.248;20.952;2023-09-08T12:35:36;7.22;;;5.20;;
17283;SDS011;8760;52.248;20.952;2023-09-08T12:38:04;8.88;;;5.28;;
17283;SDS011;8760;52.248;20.952;2023-09-08T12:40:33;6.95;;;5.53;;
17283;SDS011;8760;52.248;20.952;2023-09-08T12:43:01;7.90;;;6.10;;
17283;SDS011;8760;52.248;20.952;2023-09-08T12:45:28;7.40;;;5.13;;
17283;SDS011;8760;52.248;20.952;2023-09-08T12:50:26;7.00;;;4.70;;
17283;SDS011;8760;52.248;20.952;2023-09-08T12:52:53;5.97;;;5.00;;
17283;SDS011;8760;52.248;20.952;2023-09-08T12:55:20;6.53;;;5.65;;
17283;SDS011;8760;52.248;20.952;2023-09-08T12:57:47;5.65;;;5.13;;
17283;SDS011;8760;52.248;20.952;2023-09-08T13:00:15;6.90;;;4.80;;
17283;SDS011;8760;52.248;20.952;2023-09-08T13:02:43;6.25;;;4.68;;
17283;SDS011;8760;52.248;20.952;2023-09-08T13:05:12;6.20;;;4.72;;
17283;SDS011;8760;52.248;20.952;2023-09-08T13:07:39;4.97;;;4.55;;
17283;SDS011;8760;52.248;20.952;2023-09-08T13:10:06;7.47;;;5.75;;
17283;SDS011;8760;52.248;20.952;2023-09-08T13:12:34;6.07;;;5.45;;
17283;SDS011;8760;52.248;20.952;2023-09-08T13:15:00;8.05;;;5.20;;
17283;SDS011;8760;52.248;20.952;2023-09-08T13:17:27;5.53;;;4.95;;
17283;SDS011;8760;52.248;20.952;2023-09-08T13:19:54;5.38;;;4.55;;
17283;SDS011;8760;52.248;20.952;2023-09-08T13:22:23;9.38;;;5.22;;
17283;SDS011;8760;52.248;20.952;2023-09-08T13:24:49;6.68;;;4.78;;
17283;SDS011;8760;52.248;20.952;2023-09-08T13:27:16;5.85;;;4.97;;
17283;SDS011;8760;52.248;20.952;2023-09-08T13:29:44;6.93;;;4.82;;
17283;SDS011;8760;52.248;20.952;2023-09-08T13:32:10;5.30;;;4.72;;
17283;SDS011;8760;52.248;20.952;2023-09-08T13:34:37;5.43;;;4.90;;
17283;SDS011;8760;52.248;20.952;2023-09-08T13:37:04;6.57;;;4.75;;
17283;SDS011;8760;52.248;20.952;2023-09-08T13:39:33;9.32;;;5.22;;
17283;SDS011;8760;52.248;20.952;2023-09-08T13:42:00;5.28;;;4.60;;
17283;SDS011;8760;52.248;20.952;2023-09-08T13:44:28;8.65;;;4.70;;
17283;SDS011;8760;52.248;20.952;2023-09-08T13:46:55;8.38;;;4.68;;
17283;SDS011;8760;52.248;20.952;2023-09-08T13:49:22;7.28;;;4.80;;
17283;SDS011;8760;52.248;20.952;2023-09-08T13:51:49;6.38;;;4.90;;
17283;SDS011;8760;52.248;20.952;2023-09-08T13:54:18;7.75;;;4.97;;
17283;SDS011;8760;52.248;20.952;2023-09-08T13:56:56;8.90;;;4.68;;
17283;SDS011;8760;52.248;20.952;2023-09-08T13:59:25;7.38;;;4.85;;
17283;SDS011;8760;52.248;20.952;2023-09-08T14:01:53;7.22;;;5.50;;
17283;SDS011;8760;52.248;20.952;2023-09-08T14:04:20;6.57;;;4.45;;
17283;SDS011;8760;52.248;20.952;2023-09-08T14:06:47;8.02;;;4.85;;
17283;SDS011;8760;52.248;20.952;2023-09-08T14:09:14;6.97;;;5.13;;
17283;SDS011;8760;52.248;20.952;2023-09-08T14:11:41;8.43;;;5.10;;
17283;SDS011;8760;52.248;20.952;2023-09-08T14:14:10;9.23;;;4.97;;
17283;SDS011;8760;52.248;20.952;2023-09-08T14:16:37;5.45;;;4.88;;
17283;SDS011;8760;52.248;20.952;2023-09-08T14:19:04;8.02;;;5.28;;
17283;SDS011;8760;52.248;20.952;2023-09-08T14:21:31;6.60;;;5.05;;
17283;SDS011;8760;52.248;20.952;2023-09-08T14:23:58;6.22;;;4.65;;
17283;SDS011;8760;52.248;20.952;2023-09-08T14:26:25;5.28;;;4.68;;
17283;SDS011;8760;52.248;20.952;2023-09-08T14:28:52;8.90;;;4.90;;
17283;SDS011;8760;52.248;20.952;2023-09-08T14:31:20;5.47;;;4.90;;
17283;SDS011;8760;52.248;20.952;2023-09-08T14:33:47;6.50;;;4.72;;
17283;SDS011;8760;52.248;20.952;2023-09-08T14:36:16;6.28;;;4.93;;
17283;SDS011;8760;52.248;20.952;2023-09-08T14:38:44;6.55;;;4.55;;
17283;SDS011;8760;52.248;20.952;2023-09-08T14:41:11;5.20;;;4.63;;
17283;SDS011;8760;52.248;20.952;2023-09-08T14:43:38;4.85;;;4.45;;
17283;SDS011;8760;52.248;20.952;2023-09-08T14:46:04;7.18;;;4.93;;
17283;SDS011;8760;52.248;20.952;2023-09-08T14:48:33;6.60;;;4.85;;
17283;SDS011;8760;52.248;20.952;2023-09-08T14:51:01;6.78;;;5.00;;